sensor_id;sensor_type;location;lat;lon;timestamp;temperature;humidity
13694;DHT22;6919;52.344;14.518;2022-10-03T00:01:11;10.50;99.90
13694;DHT22;6919;52.344;14.518;2022-10-03T00:03:59;10.40;99.90
13694;DHT22;6919;52.344;14.518;2022-10-03T00:06:50;10.50;99.90
13694;DHT22;6919;52.344;14.518;2022-10-03T00:09:50;10.50;99.90
13694;DHT22;6919;52.344;14.518;2022-10-03T00:12:52;10.40;99.90
13694;DHT22;6919;52.344;14.518;2022-10-03T00:15:38;10.40;99.90
13694;DHT22;6919;52.344;14.518;2022-10-03T00:18:28;10.30;99.90
13694;DHT22;6919;52.344;14.518;2022-10-03T00:21:16;10.40;99.90
13694;DHT22;6919;52.344;14.518;2022-10-03T00:24:03;10.40;99.90
13694;DHT22;6919;52.344;14.518;2022-10-03T00:26:50;10.40;99.90
13694;DHT22;6919;52.344;14.518;2022-10-03T00:29:42;10.30;99.90
13694;DHT22;6919;52.344;14.518;2022-10-03T00:32:28;10.30;99.90
13694;DHT22;6919;52.344;14.518;2022-10-03T00:35:20;10.30;99.90
13694;DHT22;6919;52.344;14.518;2022-10-03T00:38:14;10.30;99.90
13694;DHT22;6919;52.344;14.518;2022-10-03T00:41:16;10.30;99.90
13694;DHT22;6919;52.344;14.518;2022-10-03T00:44:29;10.30;99.90
13694;DHT22;6919;52.344;14.518;2022-10-03T00:47:39;10.20;99.90
13694;DHT22;6919;52.344;14.518;2022-10-03T00:50:41;10.30;99.90
13694;DHT22;6919;52.344;14.518;2022-10-03T00:53:39;10.20;99.90
13694;DHT22;6919;52.344;14.518;2022-10-03T00:56:36;10.30;99.90
13694;DHT22;6919;52.344;14.518;2022-10-03T00:59:37;10.30;99.90
13694;DHT22;6919;52.344;14.518;2022-10-03T01:02:41;10.40;99.90
13694;DHT22;6919;52.344;14.518;2022-10-03T01:05:25;10.40;99.90
13694;DHT22;6919;52.344;14.518;2022-10-03T01:08:28;10.50;99.90
13694;DHT22;6919;52.344;14.518;2022-10-03T01:11:18;10.50;99.90
13694;DHT22;6919;52.344;14.518;2022-10-03T01:14:11;10.50;99.90
13694;DHT22;6919;52.344;14.518;2022-10-03T01:17:01;10.50;99.90
13694;DHT22;6919;52.344;14.518;2022-10-03T01:19:58;10.60;99.90
13694;DHT22;6919;52.344;14.518;2022-10-03T01:26:12;10.80;99.90
13694;DHT22;6919;52.344;14.518;2022-10-03T01:28:53;10.70;99.90
13694;DHT22;6919;52.344;14.518;2022-10-03T01:31:50;10.70;99.90
13694;DHT22;6919;52.344;14.518;2022-10-03T01:34:29;10.80;99.90
13694;DHT22;6919;52.344;14.518;2022-10-03T01:37:08;10.80;99.90
13694;DHT22;6919;52.344;14.518;2022-10-03T01:39:45;10.70;99.90
13694;DHT22;6919;52.344;14.518;2022-10-03T01:42:31;10.80;99.90
13694;DHT22;6919;52.344;14.518;2022-10-03T01:45:25;10.70;99.90
13694;DHT22;6919;52.344;14.518;2022-10-03T01:48:01;10.70;99.90
13694;DHT22;6919;52.344;14.518;2022-10-03T01:50:36;10.90;99.90
13694;DHT22;6919;52.344;14.518;2022-10-03T01:53:21;10.80;99.90
13694;DHT22;6919;52.344;14.518;2022-10-03T01:55:58;10.90;99.90
13694;DHT22;6919;52.344;14.518;2022-10-03T01:58:41;10.90;99.90
13694;DHT22;6919;52.344;14.518;2022-10-03T02:01:23;10.90;99.90
13694;DHT22;6919;52.344;14.518;2022-10-03T02:04:05;10.90;99.90
13694;DHT22;6919;52.344;14.518;2022-10-03T02:06:48;10.90;99.90
13694;DHT22;6919;52.344;14.518;2022-10-03T02:09:28;11.00;99.90
13694;DHT22;6919;52.344;14.518;2022-10-03T02:12:09;11.00;99.90
13694;DHT22;6919;52.344;14.518;2022-10-03T02:14:52;11.10;99.90
13694;DHT22;6919;52.344;14.518;2022-10-03T02:17:45;11.20;99.90
13694;DHT22;6919;52.344;14.518;2022-10-03T02:20:26;11.20;90.20
13694;DHT22;6919;52.344;14.518;2022-10-03T02:23:01;11.20;82.80
13694;DHT22;6919;52.344;14.518;2022-10-03T02:26:02;11.30;79.50
13694;DHT22;6919;52.344;14.518;2022-10-03T02:29:02;11.20;73.70
13694;DHT22;6919;52.344;14.518;2022-10-03T02:32:28;11.30;62.50
13694;DHT22;6919;52.344;14.518;2022-10-03T02:38:52;11.30;32.30
13694;DHT22;6919;52.344;14.518;2022-10-03T02:45:14;11.30;33.40
13694;DHT22;6919;52.344;14.518;2022-10-03T02:48:34;11.30;36.80
13694;DHT22;6919;52.344;14.518;2022-10-03T02:54:57;11.40;2.70
13694;DHT22;6919;52.344;14.518;2022-10-03T02:58:02;11.40;1.00
13694;DHT22;6919;52.344;14.518;2022-10-03T03:07:43;11.30;1.00
13694;DHT22;6919;52.344;14.518;2022-10-03T03:10:54;11.30;27.20
13694;DHT22;6919;52.344;14.518;2022-10-03T03:14:08;11.30;10.20
13694;DHT22;6919;52.344;14.518;2022-10-03T03:17:05;11.30;21.20
13694;DHT22;6919;52.344;14.518;2022-10-03T03:19:54;11.40;1.40
13694;DHT22;6919;52.344;14.518;2022-10-03T03:22:48;11.40;1.00
13694;DHT22;6919;52.344;14.518;2022-10-03T03:25:58;11.40;1.00
13694;DHT22;6919;52.344;14.518;2022-10-03T03:28:43;11.40;1.00
13694;DHT22;6919;52.344;14.518;2022-10-03T03:31:28;11.40;2.40
13694;DHT22;6919;52.344;14.518;2022-10-03T03:34:10;11.30;1.00
13694;DHT22;6919;52.344;14.518;2022-10-03T03:36:53;11.30;2.00
13694;DHT22;6919;52.344;14.518;2022-10-03T03:40:02;11.30;1.00
13694;DHT22;6919;52.344;14.518;2022-10-03T03:43:00;11.40;1.00
13694;DHT22;6919;52.344;14.518;2022-10-03T03:45:56;11.40;1.00
13694;DHT22;6919;52.344;14.518;2022-10-03T03:48:58;11.50;1.00
13694;DHT22;6919;52.344;14.518;2022-10-03T03:51:41;11.50;1.00
13694;DHT22;6919;52.344;14.518;2022-10-03T03:54:45;11.40;1.00
13694;DHT22;6919;52.344;14.518;2022-10-03T03:57:40;11.40;1.00
13694;DHT22;6919;52.344;14.518;2022-10-03T04:00:35;11.40;1.00
13694;DHT22;6919;52.344;14.518;2022-10-03T04:03:28;11.40;1.00
13694;DHT22;6919;52.344;14.518;2022-10-03T04:06:16;11.50;1.00
13694;DHT22;6919;52.344;14.518;2022-10-03T04:09:13;11.40;1.00
13694;DHT22;6919;52.344;14.518;2022-10-03T04:12:13;11.50;1.00
13694;DHT22;6919;52.344;14.518;2022-10-03T04:15:03;11.40;1.00
13694;DHT22;6919;52.344;14.518;2022-10-03T04:17:54;11.50;1.00
13694;DHT22;6919;52.344;14.518;2022-10-03T04:21:06;11.50;1.00
13694;DHT22;6919;52.344;14.518;2022-10-03T04:24:00;11.60;1.00
13694;DHT22;6919;52.344;14.518;2022-10-03T04:26:56;11.50;1.00
13694;DHT22;6919;52.344;14.518;2022-10-03T04:29:58;11.50;1.00
13694;DHT22;6919;52.344;14.518;2022-10-03T04:32:59;11.50;1.00
13694;DHT22;6919;52.344;14.518;2022-10-03T04:36:14;11.40;1.00
13694;DHT22;6919;52.344;14.518;2022-10-03T04:39:05;11.40;1.00
13694;DHT22;6919;52.344;14.518;2022-10-03T04:41:46;11.40;1.00
13694;DHT22;6919;52.344;14.518;2022-10-03T04:44:39;11.50;1.00
13694;DHT22;6919;52.344;14.518;2022-10-03T04:47:30;11.40;1.00
13694;DHT22;6919;52.344;14.518;2022-10-03T04:50:22;11.50;1.00
13694;DHT22;6919;52.344;14.518;2022-10-03T04:53:14;11.50;1.00
13694;DHT22;6919;52.344;14.518;2022-10-03T04:55:53;11.50;1.00
13694;DHT22;6919;52.344;14.518;2022-10-03T04:58:36;11.50;1.00
13694;DHT22;6919;52.344;14.518;2022-10-03T05:01:14;11.60;1.00
13694;DHT22;6919;52.344;14.518;2022-10-03T05:03:58;11.50;1.00
13694;DHT22;6919;52.344;14.518;2022-10-03T05:06:44;11.60;1.00
13694;DHT22;6919;52.344;14.518;2022-10-03T05:09:28;11.50;1.00
13694;DHT22;6919;52.344;14.518;2022-10-03T05:12:11;11.60;1.00
13694;DHT22;6919;52.344;14.518;2022-10-03T05:14:57;11.50;1.00
13694;DHT22;6919;52.344;14.518;2022-10-03T05:17:47;11.60;1.00
13694;DHT22;6919;52.344;14.518;2022-10-03T05:23:37;11.60;1.00
13694;DHT22;6919;52.344;14.518;2022-10-03T05:26:21;11.50;1.00
13694;DHT22;6919;52.344;14.518;2022-10-03T05:29:18;11.50;1.00
13694;DHT22;6919;52.344;14.518;2022-10-03T05:32:03;11.50;22.50
13694;DHT22;6919;52.344;14.518;2022-10-03T05:34:53;11.50;36.30
13694;DHT22;6919;52.344;14.518;2022-10-03T05:37:46;11.50;42.50
13694;DHT22;6919;52.344;14.518;2022-10-03T05:40:31;11.50;64.40
13694;DHT22;6919;52.344;14.518;2022-10-03T05:43:12;11.40;99.90
13694;DHT22;6919;52.344;14.518;2022-10-03T05:46:00;11.40;99.90
13694;DHT22;6919;52.344;14.518;2022-10-03T05:48:46;11.20;99.90
13694;DHT22;6919;52.344;14.518;2022-10-03T05:55:00;11.20;99.90
13694;DHT22;6919;52.344;14.518;2022-10-03T05:58:03;11.20;99.90
13694;DHT22;6919;52.344;14.518;2022-10-03T06:01:02;11.10;99.90
13694;DHT22;6919;52.344;14.518;2022-10-03T06:04:11;11.10;99.90
13694;DHT22;6919;52.344;14.518;2022-10-03T06:07:08;11.10;99.90
13694;DHT22;6919;52.344;14.518;2022-10-03T06:10:22;11.00;99.90
13694;DHT22;6919;52.344;14.518;2022-10-03T06:13:17;10.90;99.90
13694;DHT22;6919;52.344;14.518;2022-10-03T06:16:07;10.90;99.90
13694;DHT22;6919;52.344;14.518;2022-10-03T06:19:06;10.90;99.90
13694;DHT22;6919;52.344;14.518;2022-10-03T06:22:15;10.90;99.90
13694;DHT22;6919;52.344;14.518;2022-10-03T06:25:22;10.90;99.90
13694;DHT22;6919;52.344;14.518;2022-10-03T06:32:26;11.10;99.90
13694;DHT22;6919;52.344;14.518;2022-10-03T06:35:55;11.20;99.90
13694;DHT22;6919;52.344;14.518;2022-10-03T06:39:49;11.20;99.90
13694;DHT22;6919;52.344;14.518;2022-10-03T06:42:58;11.30;99.90
13694;DHT22;6919;52.344;14.518;2022-10-03T06:46:00;11.20;99.90
13694;DHT22;6919;52.344;14.518;2022-10-03T06:52:22;11.30;99.90
13694;DHT22;6919;52.344;14.518;2022-10-03T06:55:21;11.30;99.90
13694;DHT22;6919;52.344;14.518;2022-10-03T07:02:04;11.50;99.90
13694;DHT22;6919;52.344;14.518;2022-10-03T07:12:17;11.60;99.90
13694;DHT22;6919;52.344;14.518;2022-10-03T07:22:14;11.90;99.90
13694;DHT22;6919;52.344;14.518;2022-10-03T07:25:40;12.00;99.90
13694;DHT22;6919;52.344;14.518;2022-10-03T07:29:02;12.20;99.90
13694;DHT22;6919;52.344;14.518;2022-10-03T07:31:52;12.30;99.90
13694;DHT22;6919;52.344;14.518;2022-10-03T07:34:52;12.40;99.90
13694;DHT22;6919;52.344;14.518;2022-10-03T07:51:30;12.70;99.90
13694;DHT22;6919;52.344;14.518;2022-10-03T07:54:30;12.60;99.90
13694;DHT22;6919;52.344;14.518;2022-10-03T07:57:47;13.00;99.90
13694;DHT22;6919;52.344;14.518;2022-10-03T08:00:39;13.10;99.90
13694;DHT22;6919;52.344;14.518;2022-10-03T08:07:04;13.00;99.90
13694;DHT22;6919;52.344;14.518;2022-10-03T08:10:02;13.20;99.90
13694;DHT22;6919;52.344;14.518;2022-10-03T08:12:54;13.20;60.90
13694;DHT22;6919;52.344;14.518;2022-10-03T08:15:48;13.30;1.00
13694;DHT22;6919;52.344;14.518;2022-10-03T08:21:55;13.40;1.00
13694;DHT22;6919;52.344;14.518;2022-10-03T08:24:55;13.50;1.00
13694;DHT22;6919;52.344;14.518;2022-10-03T08:27:57;13.70;1.00
13694;DHT22;6919;52.344;14.518;2022-10-03T08:31:04;14.00;1.00
13694;DHT22;6919;52.344;14.518;2022-10-03T08:34:21;14.10;1.00
13694;DHT22;6919;52.344;14.518;2022-10-03T08:48:36;14.10;99.90
13694;DHT22;6919;52.344;14.518;2022-10-03T08:54:58;14.20;1.00
13694;DHT22;6919;52.344;14.518;2022-10-03T09:01:33;14.10;99.90
13694;DHT22;6919;52.344;14.518;2022-10-03T09:12:08;13.90;1.00
13694;DHT22;6919;52.344;14.518;2022-10-03T09:15:09;13.90;1.00
13694;DHT22;6919;52.344;14.518;2022-10-03T09:18:27;14.10;1.00
13694;DHT22;6919;52.344;14.518;2022-10-03T09:21:42;14.20;1.00
13694;DHT22;6919;52.344;14.518;2022-10-03T09:25:02;14.50;1.00
13694;DHT22;6919;52.344;14.518;2022-10-03T09:35:22;14.40;1.00
13694;DHT22;6919;52.344;14.518;2022-10-03T09:41:43;14.60;99.90
13694;DHT22;6919;52.344;14.518;2022-10-03T09:48:16;15.20;1.00
13694;DHT22;6919;52.344;14.518;2022-10-03T09:51:20;15.40;1.00
13694;DHT22;6919;52.344;14.518;2022-10-03T09:57:56;15.10;1.00
13694;DHT22;6919;52.344;14.518;2022-10-03T10:01:10;14.70;99.90
13694;DHT22;6919;52.344;14.518;2022-10-03T10:04:38;14.50;99.90
13694;DHT22;6919;52.344;14.518;2022-10-03T10:07:39;14.80;99.90
13694;DHT22;6919;52.344;14.518;2022-10-03T10:14:35;15.00;1.00
13694;DHT22;6919;52.344;14.518;2022-10-03T10:21:36;15.00;1.00
13694;DHT22;6919;52.344;14.518;2022-10-03T10:38:26;15.40;1.00
13694;DHT22;6919;52.344;14.518;2022-10-03T10:45:13;15.50;1.00
13694;DHT22;6919;52.344;14.518;2022-10-03T10:56:22;15.40;1.00
13694;DHT22;6919;52.344;14.518;2022-10-03T11:06:51;15.30;1.00
13694;DHT22;6919;52.344;14.518;2022-10-03T11:09:48;15.60;1.00
13694;DHT22;6919;52.344;14.518;2022-10-03T11:23:59;15.60;1.00
13694;DHT22;6919;52.344;14.518;2022-10-03T11:30:19;15.80;1.00
13694;DHT22;6919;52.344;14.518;2022-10-03T11:40:02;16.20;1.00
13694;DHT22;6919;52.344;14.518;2022-10-03T11:43:17;16.40;1.00
13694;DHT22;6919;52.344;14.518;2022-10-03T11:46:35;16.70;1.00
13694;DHT22;6919;52.344;14.518;2022-10-03T11:49:45;16.30;1.00
13694;DHT22;6919;52.344;14.518;2022-10-03T11:52:33;16.30;1.00
13694;DHT22;6919;52.344;14.518;2022-10-03T11:55:20;16.40;1.00
13694;DHT22;6919;52.344;14.518;2022-10-03T11:58:12;16.30;1.00
13694;DHT22;6919;52.344;14.518;2022-10-03T12:00:59;16.50;1.00
13694;DHT22;6919;52.344;14.518;2022-10-03T12:03:51;16.40;1.00
13694;DHT22;6919;52.344;14.518;2022-10-03T12:09:59;16.60;1.00
13694;DHT22;6919;52.344;14.518;2022-10-03T12:12:41;16.70;1.00
13694;DHT22;6919;52.344;14.518;2022-10-03T12:15:29;16.80;1.00
13694;DHT22;6919;52.344;14.518;2022-10-03T12:18:05;16.70;99.90
13694;DHT22;6919;52.344;14.518;2022-10-03T12:20:57;16.70;1.00
13694;DHT22;6919;52.344;14.518;2022-10-03T12:26:43;17.20;1.00
13694;DHT22;6919;52.344;14.518;2022-10-03T12:29:21;17.40;1.00
13694;DHT22;6919;52.344;14.518;2022-10-03T12:32:05;17.90;1.00
13694;DHT22;6919;52.344;14.518;2022-10-03T12:34:49;17.70;99.90
13694;DHT22;6919;52.344;14.518;2022-10-03T12:37:43;17.90;99.90
13694;DHT22;6919;52.344;14.518;2022-10-03T12:40:39;17.90;99.90
13694;DHT22;6919;52.344;14.518;2022-10-03T12:43:22;17.80;99.90
13694;DHT22;6919;52.344;14.518;2022-10-03T12:46:12;17.40;99.90
13694;DHT22;6919;52.344;14.518;2022-10-03T12:48:46;17.20;99.90
13694;DHT22;6919;52.344;14.518;2022-10-03T12:51:35;17.20;99.90
13694;DHT22;6919;52.344;14.518;2022-10-03T12:54:20;17.10;99.90
13694;DHT22;6919;52.344;14.518;2022-10-03T13:00:24;17.10;1.00
13694;DHT22;6919;52.344;14.518;2022-10-03T13:03:28;17.10;1.00
13694;DHT22;6919;52.344;14.518;2022-10-03T13:06:25;17.40;1.00
13694;DHT22;6919;52.344;14.518;2022-10-03T13:09:34;17.30;1.00
13694;DHT22;6919;52.344;14.518;2022-10-03T13:12:26;16.90;1.00
13694;DHT22;6919;52.344;14.518;2022-10-03T13:18:45;16.80;1.00
13694;DHT22;6919;52.344;14.518;2022-10-03T13:21:22;16.90;1.00
13694;DHT22;6919;52.344;14.518;2022-10-03T13:24:19;16.90;1.00
13694;DHT22;6919;52.344;14.518;2022-10-03T13:27:09;17.10;1.00
13694;DHT22;6919;52.344;14.518;2022-10-03T13:29:55;16.90;1.00
13694;DHT22;6919;52.344;14.518;2022-10-03T13:32:32;16.80;1.00
13694;DHT22;6919;52.344;14.518;2022-10-03T13:35:18;17.20;1.00
13694;DHT22;6919;52.344;14.518;2022-10-03T13:38:22;17.60;1.00
13694;DHT22;6919;52.344;14.518;2022-10-03T13:41:18;17.70;1.00
13694;DHT22;6919;52.344;14.518;2022-10-03T13:43:57;18.10;1.00
13694;DHT22;6919;52.344;14.518;2022-10-03T13:46:37;17.60;1.00
13694;DHT22;6919;52.344;14.518;2022-10-03T13:49:15;17.30;1.00
13694;DHT22;6919;52.344;14.518;2022-10-03T13:52:00;16.90;1.00
13694;DHT22;6919;52.344;14.518;2022-10-03T13:54:51;16.20;99.90
13694;DHT22;6919;52.344;14.518;2022-10-03T13:57:52;15.50;1.00
13694;DHT22;6919;52.344;14.518;2022-10-03T14:00:51;15.20;1.00
13694;DHT22;6919;52.344;14.518;2022-10-03T14:03:45;15.10;1.00
13694;DHT22;6919;52.344;14.518;2022-10-03T14:06:26;15.00;1.00
13694;DHT22;6919;52.344;14.518;2022-10-03T14:09:34;15.40;1.00
13694;DHT22;6919;52.344;14.518;2022-10-03T14:12:20;16.60;1.00
13694;DHT22;6919;52.344;14.518;2022-10-03T14:15:21;16.70;73.10
13694;DHT22;6919;52.344;14.518;2022-10-03T14:18:03;17.10;1.00
13694;DHT22;6919;52.344;14.518;2022-10-03T14:21:22;18.10;1.00
13694;DHT22;6919;52.344;14.518;2022-10-03T14:24:06;18.60;99.90
13694;DHT22;6919;52.344;14.518;2022-10-03T14:26:47;18.20;99.90
13694;DHT22;6919;52.344;14.518;2022-10-03T14:29:26;17.50;1.00
13694;DHT22;6919;52.344;14.518;2022-10-03T14:32:05;16.60;99.90
13694;DHT22;6919;52.344;14.518;2022-10-03T14:35:08;16.10;99.90
13694;DHT22;6919;52.344;14.518;2022-10-03T14:37:54;15.70;1.00
13694;DHT22;6919;52.344;14.518;2022-10-03T14:40:34;15.50;99.90
13694;DHT22;6919;52.344;14.518;2022-10-03T14:43:27;15.30;1.00
13694;DHT22;6919;52.344;14.518;2022-10-03T14:46:05;15.10;1.00
13694;DHT22;6919;52.344;14.518;2022-10-03T14:48:36;14.90;1.00
13694;DHT22;6919;52.344;14.518;2022-10-03T14:51:11;14.60;1.00
13694;DHT22;6919;52.344;14.518;2022-10-03T14:53:47;14.50;1.00
13694;DHT22;6919;52.344;14.518;2022-10-03T14:56:21;14.20;35.40
13694;DHT22;6919;52.344;14.518;2022-10-03T14:58:54;14.20;63.10
13694;DHT22;6919;52.344;14.518;2022-10-03T15:01:25;13.90;94.70
13694;DHT22;6919;52.344;14.518;2022-10-03T15:04:01;13.80;99.90
13694;DHT22;6919;52.344;14.518;2022-10-03T15:06:53;13.70;99.90
13694;DHT22;6919;52.344;14.518;2022-10-03T15:09:31;13.60;99.90
13694;DHT22;6919;52.344;14.518;2022-10-03T15:12:11;13.50;99.90
13694;DHT22;6919;52.344;14.518;2022-10-03T15:14:55;13.60;99.90
13694;DHT22;6919;52.344;14.518;2022-10-03T15:17:30;13.60;99.90
13694;DHT22;6919;52.344;14.518;2022-10-03T15:20:02;13.80;99.90
13694;DHT22;6919;52.344;14.518;2022-10-03T15:22:35;13.90;99.90
13694;DHT22;6919;52.344;14.518;2022-10-03T15:25:12;13.90;92.10
13694;DHT22;6919;52.344;14.518;2022-10-03T15:27:47;13.70;82.30
13694;DHT22;6919;52.344;14.518;2022-10-03T15:30:21;13.70;99.90
13694;DHT22;6919;52.344;14.518;2022-10-03T15:33:04;13.70;99.90
13694;DHT22;6919;52.344;14.518;2022-10-03T15:35:40;13.50;99.90
13694;DHT22;6919;52.344;14.518;2022-10-03T15:38:13;13.50;99.90
13694;DHT22;6919;52.344;14.518;2022-10-03T15:40:50;13.40;99.90
13694;DHT22;6919;52.344;14.518;2022-10-03T15:43:29;13.30;99.90
13694;DHT22;6919;52.344;14.518;2022-10-03T15:46:11;13.30;99.90
13694;DHT22;6919;52.344;14.518;2022-10-03T15:48:42;13.30;99.90
13694;DHT22;6919;52.344;14.518;2022-10-03T15:51:16;13.30;99.90
13694;DHT22;6919;52.344;14.518;2022-10-03T15:53:47;13.30;99.90
13694;DHT22;6919;52.344;14.518;2022-10-03T15:56:22;13.30;99.90
13694;DHT22;6919;52.344;14.518;2022-10-03T15:59:00;13.30;99.90
13694;DHT22;6919;52.344;14.518;2022-10-03T16:01:37;13.20;99.90
13694;DHT22;6919;52.344;14.518;2022-10-03T16:04:16;13.30;99.90
13694;DHT22;6919;52.344;14.518;2022-10-03T16:06:52;13.20;99.90
13694;DHT22;6919;52.344;14.518;2022-10-03T16:09:33;13.10;99.90
13694;DHT22;6919;52.344;14.518;2022-10-03T16:12:42;13.10;99.90
13694;DHT22;6919;52.344;14.518;2022-10-03T16:15:25;13.10;99.90
13694;DHT22;6919;52.344;14.518;2022-10-03T16:18:10;13.10;99.90
13694;DHT22;6919;52.344;14.518;2022-10-03T16:21:41;13.10;99.90
13694;DHT22;6919;52.344;14.518;2022-10-03T16:24:20;13.10;99.90
13694;DHT22;6919;52.344;14.518;2022-10-03T16:27:06;13.10;99.90
13694;DHT22;6919;52.344;14.518;2022-10-03T16:29:43;13.10;99.90
13694;DHT22;6919;52.344;14.518;2022-10-03T16:32:21;13.10;99.90
13694;DHT22;6919;52.344;14.518;2022-10-03T16:34:57;13.10;99.90
13694;DHT22;6919;52.344;14.518;2022-10-03T16:37:30;13.00;99.90
13694;DHT22;6919;52.344;14.518;2022-10-03T16:40:05;13.10;99.90
13694;DHT22;6919;52.344;14.518;2022-10-03T16:42:38;13.00;99.90
13694;DHT22;6919;52.344;14.518;2022-10-03T16:45:20;13.00;99.90
13694;DHT22;6919;52.344;14.518;2022-10-03T16:47:53;13.00;99.90
13694;DHT22;6919;52.344;14.518;2022-10-03T16:50:47;13.00;99.90
13694;DHT22;6919;52.344;14.518;2022-10-03T16:53:19;13.00;99.90
13694;DHT22;6919;52.344;14.518;2022-10-03T16:55:51;13.00;99.90
13694;DHT22;6919;52.344;14.518;2022-10-03T16:58:28;13.00;99.90
13694;DHT22;6919;52.344;14.518;2022-10-03T17:01:01;13.00;99.90
13694;DHT22;6919;52.344;14.518;2022-10-03T17:03:54;13.00;99.90
13694;DHT22;6919;52.344;14.518;2022-10-03T17:06:31;13.00;99.90
13694;DHT22;6919;52.344;14.518;2022-10-03T17:09:05;13.00;99.90
13694;DHT22;6919;52.344;14.518;2022-10-03T17:11:41;13.00;99.90
13694;DHT22;6919;52.344;14.518;2022-10-03T17:14:18;13.00;99.90
13694;DHT22;6919;52.344;14.518;2022-10-03T17:16:53;12.90;99.90
13694;DHT22;6919;52.344;14.518;2022-10-03T17:19:33;13.00;99.90
13694;DHT22;6919;52.344;14.518;2022-10-03T17:22:12;13.00;99.90
13694;DHT22;6919;52.344;14.518;2022-10-03T17:24:46;13.00;99.90
13694;DHT22;6919;52.344;14.518;2022-10-03T17:27:23;12.90;99.90
13694;DHT22;6919;52.344;14.518;2022-10-03T17:30:01;13.00;99.90
13694;DHT22;6919;52.344;14.518;2022-10-03T17:32:35;13.00;99.90
13694;DHT22;6919;52.344;14.518;2022-10-03T17:35:11;13.00;99.90
13694;DHT22;6919;52.344;14.518;2022-10-03T17:38:06;12.90;99.90
13694;DHT22;6919;52.344;14.518;2022-10-03T17:41:13;12.90;99.90
13694;DHT22;6919;52.344;14.518;2022-10-03T17:43:47;12.90;99.90
13694;DHT22;6919;52.344;14.518;2022-10-03T17:46:38;12.90;99.90
13694;DHT22;6919;52.344;14.518;2022-10-03T17:49:19;12.90;99.90
13694;DHT22;6919;52.344;14.518;2022-10-03T17:51:58;12.80;99.90
13694;DHT22;6919;52.344;14.518;2022-10-03T17:54:31;12.70;99.90
13694;DHT22;6919;52.344;14.518;2022-10-03T17:57:05;12.60;99.90
13694;DHT22;6919;52.344;14.518;2022-10-03T17:59:45;12.60;99.90
13694;DHT22;6919;52.344;14.518;2022-10-03T18:02:28;12.50;99.90
13694;DHT22;6919;52.344;14.518;2022-10-03T18:05:09;12.40;99.90
13694;DHT22;6919;52.344;14.518;2022-10-03T18:07:41;12.30;99.90
13694;DHT22;6919;52.344;14.518;2022-10-03T18:10:24;12.20;99.90
13694;DHT22;6919;52.344;14.518;2022-10-03T18:12:56;12.10;99.90
13694;DHT22;6919;52.344;14.518;2022-10-03T18:15:39;11.70;99.90
13694;DHT22;6919;52.344;14.518;2022-10-03T18:21:39;11.70;99.90
13694;DHT22;6919;52.344;14.518;2022-10-03T18:24:39;11.70;99.90
13694;DHT22;6919;52.344;14.518;2022-10-03T18:27:43;11.60;99.90
13694;DHT22;6919;52.344;14.518;2022-10-03T18:30:26;11.50;99.90
13694;DHT22;6919;52.344;14.518;2022-10-03T18:33:02;11.30;99.90
13694;DHT22;6919;52.344;14.518;2022-10-03T18:35:37;11.50;99.90
13694;DHT22;6919;52.344;14.518;2022-10-03T18:38:11;11.40;99.90
13694;DHT22;6919;52.344;14.518;2022-10-03T18:40:48;11.40;99.90
13694;DHT22;6919;52.344;14.518;2022-10-03T18:43:33;11.40;99.90
13694;DHT22;6919;52.344;14.518;2022-10-03T18:46:14;11.40;99.90
13694;DHT22;6919;52.344;14.518;2022-10-03T18:48:55;11.20;99.90
13694;DHT22;6919;52.344;14.518;2022-10-03T18:51:51;11.20;99.90
13694;DHT22;6919;52.344;14.518;2022-10-03T18:54:35;11.30;99.90
13694;DHT22;6919;52.344;14.518;2022-10-03T18:57:17;11.20;99.90
13694;DHT22;6919;52.344;14.518;2022-10-03T18:59:54;11.20;99.90
13694;DHT22;6919;52.344;14.518;2022-10-03T19:02:35;11.10;99.90
13694;DHT22;6919;52.344;14.518;2022-10-03T19:05:12;11.10;99.90
13694;DHT22;6919;52.344;14.518;2022-10-03T19:07:49;11.10;99.90
13694;DHT22;6919;52.344;14.518;2022-10-03T19:10:36;11.10;99.90
13694;DHT22;6919;52.344;14.518;2022-10-03T19:13:16;11.00;99.90
13694;DHT22;6919;52.344;14.518;2022-10-03T19:16:12;11.00;99.90
13694;DHT22;6919;52.344;14.518;2022-10-03T19:18:55;11.00;99.90
13694;DHT22;6919;52.344;14.518;2022-10-03T19:21:34;10.90;99.90
13694;DHT22;6919;52.344;14.518;2022-10-03T19:24:08;10.90;99.90
13694;DHT22;6919;52.344;14.518;2022-10-03T19:26:44;10.90;99.90
13694;DHT22;6919;52.344;14.518;2022-10-03T19:29:20;11.00;99.90
13694;DHT22;6919;52.344;14.518;2022-10-03T19:31:59;11.00;99.90
13694;DHT22;6919;52.344;14.518;2022-10-03T19:34:35;11.00;99.90
13694;DHT22;6919;52.344;14.518;2022-10-03T19:37:08;11.00;99.90
13694;DHT22;6919;52.344;14.518;2022-10-03T19:39:43;10.90;99.90
13694;DHT22;6919;52.344;14.518;2022-10-03T19:42:24;11.00;99.90
13694;DHT22;6919;52.344;14.518;2022-10-03T19:45:01;11.00;99.90
13694;DHT22;6919;52.344;14.518;2022-10-03T19:47:32;11.10;99.90
13694;DHT22;6919;52.344;14.518;2022-10-03T19:50:10;11.00;99.90
13694;DHT22;6919;52.344;14.518;2022-10-03T19:52:44;11.00;99.90
13694;DHT22;6919;52.344;14.518;2022-10-03T19:55:14;11.10;99.90
13694;DHT22;6919;52.344;14.518;2022-10-03T19:57:48;11.40;99.90
13694;DHT22;6919;52.344;14.518;2022-10-03T20:00:27;11.20;99.90
13694;DHT22;6919;52.344;14.518;2022-10-03T20:03:14;11.30;99.90
13694;DHT22;6919;52.344;14.518;2022-10-03T20:05:53;11.30;99.90
13694;DHT22;6919;52.344;14.518;2022-10-03T20:08:32;11.30;99.90
13694;DHT22;6919;52.344;14.518;2022-10-03T20:11:16;11.40;99.90
13694;DHT22;6919;52.344;14.518;2022-10-03T20:13:56;11.50;99.90
13694;DHT22;6919;52.344;14.518;2022-10-03T20:16:29;11.50;99.90
13694;DHT22;6919;52.344;14.518;2022-10-03T20:19:07;11.50;99.90
13694;DHT22;6919;52.344;14.518;2022-10-03T20:21:38;11.60;99.90
13694;DHT22;6919;52.344;14.518;2022-10-03T20:24:10;11.60;99.90
13694;DHT22;6919;52.344;14.518;2022-10-03T20:26:50;11.60;99.90
13694;DHT22;6919;52.344;14.518;2022-10-03T20:29:29;11.70;99.90
13694;DHT22;6919;52.344;14.518;2022-10-03T20:32:01;11.70;99.90
13694;DHT22;6919;52.344;14.518;2022-10-03T20:34:33;11.80;99.90
13694;DHT22;6919;52.344;14.518;2022-10-03T20:37:39;11.90;99.90
13694;DHT22;6919;52.344;14.518;2022-10-03T20:40:32;11.90;99.90
13694;DHT22;6919;52.344;14.518;2022-10-03T20:43:32;11.90;99.90
13694;DHT22;6919;52.344;14.518;2022-10-03T20:46:14;11.90;99.90
13694;DHT22;6919;52.344;14.518;2022-10-03T20:51:58;11.90;84.40
13694;DHT22;6919;52.344;14.518;2022-10-03T20:54:33;12.00;94.90
13694;DHT22;6919;52.344;14.518;2022-10-03T20:57:06;12.00;93.20
13694;DHT22;6919;52.344;14.518;2022-10-03T20:59:46;12.00;94.50
13694;DHT22;6919;52.344;14.518;2022-10-03T21:02:25;12.10;77.80
13694;DHT22;6919;52.344;14.518;2022-10-03T21:05:02;12.00;94.50
13694;DHT22;6919;52.344;14.518;2022-10-03T21:07:38;12.10;99.10
13694;DHT22;6919;52.344;14.518;2022-10-03T21:10:17;12.10;99.90